N11DL NZMS-NZNS
Flight info
| Callsign | N11DL |
|---|---|
| Flight time | N/A |
| Altitude | 8000 |
| Route | LADIT Y242 WN H133 WB/N0213F070 H133 LUBSI |
| Aircraft | AEST/L-SDFGRY/S |
Departure
| Time | 2026-04-19 23:02 |
|---|---|
| Airport | Hood Airport (NZMS) |
Arrival
| Time | N/A |
|---|---|
| Airport | Nelson Airport (NZNS) |
| Time | Latitude | Longitude | Altitude | Speed | Heading |
|---|---|---|---|---|---|
| 2026-04-19 22:50 | -40.97239 | 175.63268 | 363 ft | 0 kts | 254° |
| 2026-04-19 22:55 | -40.97240 | 175.63267 | 361 ft | 2 kts | 254° |
| 2026-04-19 22:55 | -40.97241 | 175.63259 | 361 ft | 0 kts | 258° |
| 2026-04-19 22:56 | -40.97244 | 175.63224 | 365 ft | 9 kts | 261° |
| 2026-04-19 22:56 | -40.97323 | 175.63204 | 363 ft | 16 kts | 161° |
| 2026-04-19 22:56 | -40.97407 | 175.63217 | 363 ft | 10 kts | 229° |
| 2026-04-19 22:57 | -40.97434 | 175.63096 | 363 ft | 19 kts | 257° |
| 2026-04-19 22:57 | -40.97468 | 175.62900 | 361 ft | 22 kts | 258° |
| 2026-04-19 22:57 | -40.97493 | 175.62752 | 361 ft | 10 kts | 256° |
| 2026-04-19 22:57 | -40.97509 | 175.62680 | 361 ft | 7 kts | 218° |
| 2026-04-19 22:58 | -40.97534 | 175.62680 | 360 ft | 0 kts | 173° |
| 2026-04-19 22:59 | -40.97534 | 175.62681 | 360 ft | 0 kts | 173° |
| 2026-04-19 23:00 | -40.97548 | 175.62682 | 359 ft | 11 kts | 176° |
| 2026-04-19 23:00 | -40.97621 | 175.62674 | 364 ft | 6 kts | 152° |
| 2026-04-19 23:01 | -40.97638 | 175.62725 | 363 ft | 6 kts | 45° |
| 2026-04-19 23:01 | -40.97601 | 175.62690 | 360 ft | 11 kts | 57° |
| 2026-04-19 23:01 | -40.97563 | 175.62851 | 356 ft | 48 kts | 76° |
| 2026-04-19 23:01 | -40.97437 | 175.63583 | 358 ft | 106 kts | 78° |
| 2026-04-19 23:02 | -40.97264 | 175.64554 | 566 ft | 103 kts | 80° |
| 2026-04-19 23:02 | -40.97094 | 175.65478 | 804 ft | 104 kts | 79° |
| 2026-04-19 23:02 | -40.96706 | 175.66341 | 1021 ft | 122 kts | 33° |
| 2026-04-19 23:02 | -40.95889 | 175.66456 | 1455 ft | 122 kts | 338° |